Robinson, Illinois
Current Conditions -  °F | °C
As of 6:15 AM on Friday 31 Oct 2014 (Local Time) from KRSV Reporting Station
Overcast Overcast  
Wind Chill: 43°   Ceiling: 9000
Heat Index: 46°   Visibility: 10mi
Dew Point: 44°   Wind: 5mph
Humidity: 95%   Direction: 300°WNW
Pressure: 30.06"   Gusts: NA
Location:  39.01°N, 87.74°W
Report Text: KRSV 311115Z AUTO 30004KT 10SM SCT070 BKN090 OVC120 08/07 A3006 RMK AO2 T00760068
Loading
Personal Weather Stations






























Interactive Weather Map
Tropical Storm Tracking
New forecast layout! Learn more

10-Day Weather Forecast

Advertisements
Track Severe Weather on mobile